Time;durP1;ratioP1;P1;durP2;ratioP2;P2;SDS_P1;SDS_P2;PMS_P1;PMS_P2;Temp;Humidity;BMP_temperature;BMP_pressure;BME280_temperature;BME280_humidity;BME280_pressure;Samples;Min_cycle;Max_cycle;Signal;HPM_P1;HPM_P2
2020/12/24 00:01:50;;;;;;;2.30;2.10;;;19.20;27.50;;;;;;5113858;28;20608;-59
2020/12/24 00:04:16;;;;;;;2.40;2.00;;;19.20;27.50;;;;;;5114129;28;20684;-60
2020/12/24 00:06:42;;;;;;;1.70;1.60;;;19.20;27.50;;;;;;5113736;28;20157;-60
2020/12/24 00:09:07;;;;;;;3.27;2.13;;;19.20;27.50;;;;;;5094981;28;20200;-60
2020/12/24 00:11:33;;;;;;;1.77;1.67;;;19.20;27.60;;;;;;5113845;28;20210;-60
2020/12/24 00:13:58;;;;;;;2.30;2.10;;;19.20;27.60;;;;;;5113928;28;20149;-59
2020/12/24 00:16:24;;;;;;;1.83;1.73;;;19.20;27.60;;;;;;5113821;28;20164;-60
2020/12/24 00:18:50;;;;;;;1.67;1.40;;;19.20;27.50;;;;;;5113698;28;20203;-60
2020/12/24 00:21:16;;;;;;;1.60;1.50;;;19.20;27.50;;;;;;5113874;28;20150;-60
2020/12/24 00:23:42;;;;;;;2.85;1.70;;;19.20;27.50;;;;;;5113444;28;20199;-60
2020/12/24 00:26:07;;;;;;;2.60;2.20;;;19.20;27.50;;;;;;5113755;28;20153;-60
2020/12/24 00:28:33;;;;;;;2.50;1.73;;;19.20;27.50;;;;;;5113848;28;20592;-60
2020/12/24 00:30:59;;;;;;;2.30;1.80;;;19.20;27.60;;;;;;5095666;28;20237;-60
2020/12/24 00:33:26;;;;;;;1.60;1.50;;;19.20;27.50;;;;;;5113651;28;20232;-59
2020/12/24 00:35:52;;;;;;;1.55;1.33;;;19.20;27.50;;;;;;5113492;28;20224;-59
2020/12/24 00:38:18;;;;;;;2.30;1.60;;;19.20;27.50;;;;;;5095009;28;20715;-59
2020/12/24 00:40:44;;;;;;;2.85;1.70;;;19.20;27.50;;;;;;5113612;28;20411;-60
2020/12/24 00:43:10;;;;;;;1.50;1.40;;;19.20;27.50;;;;;;5113636;28;20278;-59
2020/12/24 00:45:35;;;;;;;1.88;1.73;;;19.20;27.60;;;;;;5113600;28;20188;-59
2020/12/24 00:48:01;;;;;;;1.70;1.43;;;19.20;27.50;;;;;;5115557;28;20668;-59
2020/12/24 00:50:27;;;;;;;2.70;2.00;;;19.20;27.60;;;;;;5117012;28;20504;-59
2020/12/24 00:52:52;;;;;;;2.17;1.60;;;19.20;27.50;;;;;;5116530;28;20223;-59
2020/12/24 00:55:18;;;;;;;2.00;1.80;;;19.20;27.50;;;;;;5117223;28;20616;-60
2020/12/24 00:57:44;;;;;;;2.57;1.70;;;19.20;27.60;;;;;;5114651;28;20528;-59
2020/12/24 01:00:09;;;;;;;2.73;1.70;;;19.20;27.50;;;;;;5117138;28;20161;-59
2020/12/24 01:02:35;;;;;;;2.20;2.00;;;19.20;27.50;;;;;;5116958;28;20619;-59
2020/12/24 01:05:03;;;;;;;2.10;1.50;;;19.20;27.50;;;;;;5116952;28;20218;-60
2020/12/24 01:07:29;;;;;;;1.88;1.70;;;19.20;27.50;;;;;;5116570;28;20159;-60
2020/12/24 01:09:54;;;;;;;3.10;2.00;;;19.20;27.50;;;;;;5098632;28;20284;-60
2020/12/24 01:12:20;;;;;;;1.97;1.47;;;19.20;27.50;;;;;;5116936;28;20162;-60
2020/12/24 01:14:45;;;;;;;1.70;1.40;;;19.20;27.50;;;;;;5116771;28;20499;-60
2020/12/24 01:17:11;;;;;;;2.73;1.90;;;19.20;27.50;;;;;;5116673;28;20172;-60
2020/12/24 01:19:37;;;;;;;1.77;1.60;;;19.20;27.50;;;;;;5098557;28;20188;-60
2020/12/24 01:22:02;;;;;;;3.00;2.00;;;19.10;27.40;;;;;;5116202;28;20161;-60
2020/12/24 01:24:28;;;;;;;2.50;2.00;;;19.10;27.40;;;;;;5116773;28;20172;-59
2020/12/24 01:26:54;;;;;;;1.70;1.60;;;19.10;27.40;;;;;;5116466;28;20608;-60
2020/12/24 01:29:19;;;;;;;2.03;1.77;;;19.20;27.50;;;;;;5116549;28;20647;-61
2020/12/24 01:31:46;;;;;;;2.10;1.90;;;19.20;27.50;;;;;;5116441;28;20160;-58
2020/12/24 01:34:19;;;;;;;3.80;1.85;;;19.20;27.50;;;;;;5116205;28;20161;-59
2020/12/24 01:36:45;;;;;;;2.10;1.83;;;19.10;27.40;;;;;;5116330;28;20190;-63
2020/12/24 01:39:12;;;;;;;1.98;1.63;;;19.10;27.40;;;;;;5115984;28;20153;-59
2020/12/24 01:41:38;;;;;;;2.25;1.70;;;19.10;27.40;;;;;;5098473;28;20244;-59
2020/12/24 01:44:04;;;;;;;1.55;1.45;;;19.10;27.40;;;;;;5116234;28;20181;-59
2020/12/24 01:46:29;;;;;;;2.07;1.80;;;19.10;27.40;;;;;;5116226;28;20203;-59
2020/12/24 01:48:55;;;;;;;2.13;1.93;;;19.20;27.50;;;;;;5097354;28;20631;-60
2020/12/24 01:51:30;;;;;;;2.27;1.73;;;19.20;28.10;;;;;;5097707;28;20221;-61
2020/12/24 01:53:58;;;;;;;1.95;1.80;;;19.10;27.40;;;;;;5115570;28;20145;-60
2020/12/24 01:56:25;;;;;;;1.58;1.48;;;19.10;27.50;;;;;;5115867;28;20233;-60
2020/12/24 01:58:52;;;;;;;1.95;1.75;;;19.20;27.50;;;;;;5114980;28;20149;-60
2020/12/24 02:01:18;;;;;;;2.08;1.88;;;19.10;27.40;;;;;;5115752;28;20149;-60
2020/12/24 02:03:44;;;;;;;1.75;1.55;;;19.10;27.40;;;;;;5115773;28;20152;-60
2020/12/24 02:06:11;;;;;;;1.97;1.60;;;19.10;27.50;;;;;;5115779;28;20157;-60
2020/12/24 02:08:37;;;;;;;2.35;1.92;;;19.10;27.40;;;;;;5115274;28;20157;-60
2020/12/24 02:11:03;;;;;;;1.73;1.63;;;19.10;27.50;;;;;;5115704;28;20687;-60
2020/12/24 02:13:28;;;;;;;2.03;1.83;;;19.10;27.40;;;;;;5115815;28;20798;-60
2020/12/24 02:15:54;;;;;;;2.17;1.80;;;19.10;27.40;;;;;;5115537;28;20650;-60
2020/12/24 02:18:20;;;;;;;1.77;1.57;;;19.10;27.40;;;;;;5131437;27;20620;-61
2020/12/24 02:20:46;;;;;;;1.90;1.58;;;19.10;27.40;;;;;;5115451;28;20423;-61
2020/12/24 02:23:12;;;;;;;1.57;1.47;;;19.10;27.40;;;;;;5115010;28;20184;-60
2020/12/24 02:25:40;;;;;;;1.63;1.50;;;19.10;27.40;;;;;;5115412;28;20377;-60
2020/12/24 02:28:06;;;;;;;1.25;1.15;;;19.10;27.40;;;;;;5097424;28;20160;-60
2020/12/24 02:30:32;;;;;;;3.72;1.95;;;19.10;27.40;;;;;;5115216;28;20193;-60
2020/12/24 02:32:57;;;;;;;2.43;1.80;;;19.10;27.40;;;;;;5115272;28;20248;-60
2020/12/24 02:35:23;;;;;;;2.20;1.53;;;19.10;27.50;;;;;;5115016;28;20169;-60
2020/12/24 02:37:49;;;;;;;1.53;1.43;;;19.10;27.50;;;;;;5114863;28;20395;-60
2020/12/24 02:40:14;;;;;;;2.23;2.03;;;19.10;27.40;;;;;;5115129;28;20172;-60
2020/12/24 02:42:40;;;;;;;1.80;1.70;;;19.10;27.50;;;;;;5115370;28;20630;-60
2020/12/24 02:45:06;;;;;;;2.13;1.87;;;19.10;27.50;;;;;;5114951;28;20512;-61
2020/12/24 02:47:36;;;;;;;1.80;1.70;;;19.10;27.50;;;;;;5114957;28;20161;-60
2020/12/24 02:50:02;;;;;;;2.55;1.45;;;19.10;27.40;;;;;;5115139;28;20591;-60
2020/12/24 02:52:28;;;;;;;2.15;1.80;;;19.10;27.40;;;;;;5114342;28;20212;-60
2020/12/24 02:54:53;;;;;;;2.10;1.80;;;19.10;27.40;;;;;;5114926;28;20236;-60
2020/12/24 02:57:19;;;;;;;1.33;1.23;;;19.10;27.50;;;;;;5114848;28;20685;-60
2020/12/24 02:59:45;;;;;;;3.13;1.67;;;19.10;28.00;;;;;;5114695;28;20561;-60
2020/12/24 03:02:10;;;;;;;1.43;1.33;;;19.10;27.40;;;;;;5114609;28;20516;-61
2020/12/24 03:04:36;;;;;;;1.67;1.47;;;19.10;27.40;;;;;;5114808;28;20183;-60
2020/12/24 03:07:02;;;;;;;1.30;1.20;;;19.00;27.40;;;;;;5114069;28;20161;-61
2020/12/24 03:09:27;;;;;;;2.23;1.57;;;19.10;27.50;;;;;;5114863;28;20540;-59
2020/12/24 03:11:53;;;;;;;1.40;1.30;;;19.10;27.40;;;;;;5114473;28;20182;-59
2020/12/24 03:14:19;;;;;;;1.60;1.50;;;19.10;27.40;;;;;;5114531;28;20149;-59
2020/12/24 03:16:45;;;;;;;1.30;1.20;;;19.00;27.40;;;;;;5114531;28;20157;-59
2020/12/24 03:19:11;;;;;;;2.30;2.00;;;19.00;27.40;;;;;;5114399;28;20376;-60
2020/12/24 03:21:37;;;;;;;2.67;1.80;;;19.10;27.50;;;;;;5114423;28;20225;-60
2020/12/24 03:24:02;;;;;;;1.70;1.60;;;19.00;27.40;;;;;;5113968;28;20608;-60
2020/12/24 03:26:28;;;;;;;2.20;1.97;;;19.00;27.40;;;;;;5114396;28;20574;-60
2020/12/24 03:28:54;;;;;;;1.70;1.60;;;19.00;27.40;;;;;;5114154;28;20531;-60
2020/12/24 03:31:22;;;;;;;1.53;1.43;;;19.00;27.40;;;;;;5096435;28;20165;-60
2020/12/24 03:33:48;;;;;;;1.73;1.55;;;19.00;27.40;;;;;;5114303;28;20608;-60
2020/12/24 03:36:14;;;;;;;2.47;1.52;;;19.00;27.40;;;;;;5114136;28;20153;-60
2020/12/24 03:38:39;;;;;;;1.80;1.70;;;19.00;27.50;;;;;;5113795;28;20157;-60
2020/12/24 03:41:05;;;;;;;2.80;2.23;;;19.00;27.50;;;;;;5114541;28;20496;-60
2020/12/24 03:43:31;;;;;;;2.60;1.80;;;19.00;27.50;;;;;;5114132;28;20153;-60
2020/12/24 03:45:57;;;;;;;1.70;1.40;;;19.00;27.50;;;;;;5114132;28;20194;-59
2020/12/24 03:48:22;;;;;;;1.67;1.40;;;19.00;27.60;;;;;;5114112;28;20503;-60
2020/12/24 03:50:48;;;;;;;1.33;1.10;;;19.00;27.60;;;;;;5114067;28;20189;-60
2020/12/24 03:53:14;;;;;;;1.70;1.60;;;19.00;27.60;;;;;;5113565;28;20468;-60
2020/12/24 03:55:40;;;;;;;1.63;1.27;;;19.00;27.60;;;;;;5114121;28;20520;-60
2020/12/24 03:58:05;;;;;;;2.50;1.80;;;19.00;27.60;;;;;;5095391;28;20177;-60
2020/12/24 04:00:31;;;;;;;2.00;1.57;;;19.00;27.70;;;;;;5114360;28;20411;-60
2020/12/24 04:02:56;;;;;;;1.73;1.50;;;19.00;27.60;;;;;;5113866;28;20165;-60
2020/12/24 04:05:22;;;;;;;1.87;1.77;;;19.00;27.70;;;;;;5114199;28;20529;-60
2020/12/24 04:07:49;;;;;;;1.70;1.60;;;19.00;27.70;;;;;;5113562;28;20193;-60
2020/12/24 04:10:16;;;;;;;2.15;1.83;;;19.00;27.70;;;;;;5113895;28;20213;-61
2020/12/24 04:12:42;;;;;;;1.52;1.42;;;19.00;27.70;;;;;;5130107;28;20698;-58
2020/12/24 04:15:07;;;;;;;2.47;2.27;;;19.00;27.70;;;;;;5113990;28;20185;-59
2020/12/24 04:17:33;;;;;;;2.67;1.43;;;19.00;27.70;;;;;;5113818;28;20185;-59
2020/12/24 04:19:58;;;;;;;1.43;1.33;;;19.00;27.70;;;;;;5114289;28;20165;-59
2020/12/24 04:22:24;;;;;;;1.80;1.57;;;19.00;27.70;;;;;;5114456;28;20161;-59
2020/12/24 04:24:50;;;;;;;1.43;1.30;;;19.00;27.80;;;;;;5117931;28;20153;-59
2020/12/24 04:27:16;;;;;;;2.08;1.40;;;19.00;27.80;;;;;;5117605;28;20145;-59
2020/12/24 04:29:42;;;;;;;1.77;1.50;;;19.00;27.80;;;;;;5117771;28;20226;-59
2020/12/24 04:32:08;;;;;;;1.97;1.77;;;18.90;27.80;;;;;;5117467;28;20210;-59
2020/12/24 04:34:33;;;;;;;1.73;1.50;;;19.00;27.80;;;;;;5099531;28;20628;-59
2020/12/24 04:36:59;;;;;;;2.13;1.90;;;18.90;28.30;;;;;;5116932;28;20162;-59
2020/12/24 04:39:25;;;;;;;1.90;1.60;;;18.90;27.80;;;;;;5117481;28;20158;-60
2020/12/24 04:41:52;;;;;;;1.80;1.50;;;18.90;27.80;;;;;;5117300;28;20421;-59
2020/12/24 04:44:18;;;;;;;2.00;1.80;;;19.00;27.90;;;;;;5117403;28;20652;-59
2020/12/24 04:46:47;;;;;;;1.60;1.50;;;18.90;28.40;;;;;;5117304;28;20157;-59
2020/12/24 04:49:14;;;;;;;1.70;1.45;;;18.90;27.80;;;;;;5116987;28;20157;-60
2020/12/24 04:51:43;;;;;;;1.20;1.10;;;18.90;27.80;;;;;;5117334;28;20262;-59
2020/12/24 04:54:12;;;;;;;1.40;1.25;;;18.90;27.80;;;;;;5116697;28;20651;-60
2020/12/24 04:56:39;;;;;;;2.58;2.00;;;18.90;27.80;;;;;;5116988;28;20177;-61
2020/12/24 04:59:06;;;;;;;2.03;1.50;;;18.90;27.80;;;;;;5117063;28;20603;-60
2020/12/24 05:01:32;;;;;;;1.40;1.30;;;18.90;27.90;;;;;;5117077;28;20318;-61
2020/12/24 05:03:58;;;;;;;1.60;1.50;;;18.90;27.90;;;;;;5117176;28;20154;-60
2020/12/24 05:06:23;;;;;;;1.33;1.17;;;18.90;27.90;;;;;;5098866;28;20919;-60
2020/12/24 05:08:53;;;;;;;1.93;1.67;;;18.90;27.90;;;;;;5116739;28;20164;-61
2020/12/24 05:11:32;;;;;;;1.42;1.33;;;18.90;27.90;;;;;;5132440;27;20192;-61
2020/12/24 05:14:18;;;;;;;1.77;1.65;;;18.90;27.90;;;;;;5116607;28;20190;-60
2020/12/24 05:16:57;;;;;;;1.98;1.58;;;18.90;27.90;;;;;;5116795;28;20145;-60
2020/12/24 05:19:23;;;;;;;1.38;1.27;;;18.90;27.90;;;;;;5116655;28;20210;-60
2020/12/24 05:21:49;;;;;;;1.50;1.40;;;18.90;27.90;;;;;;5081587;28;20165;-60
2020/12/24 05:24:23;;;;;;;1.70;1.43;;;18.90;28.00;;;;;;5116312;28;20600;-61
2020/12/24 05:26:49;;;;;;;1.95;1.80;;;18.90;27.90;;;;;;5116683;28;20199;-60
2020/12/24 05:29:15;;;;;;;2.00;1.73;;;18.90;28.00;;;;;;5117067;28;20198;-61
2020/12/24 05:31:40;;;;;;;1.90;1.40;;;18.90;27.90;;;;;;5098274;28;20165;-60
2020/12/24 05:34:06;;;;;;;1.10;0.90;;;18.90;28.00;;;;;;5116056;28;20597;-60
2020/12/24 05:36:32;;;;;;;1.70;1.60;;;18.90;28.00;;;;;;5116381;28;20149;-60
2020/12/24 05:38:57;;;;;;;2.07;1.87;;;18.90;28.00;;;;;;5097601;28;20161;-60
2020/12/24 05:41:33;;;;;;;1.30;1.20;;;18.90;28.00;;;;;;5116414;28;20510;-60
2020/12/24 05:44:09;;;;;;;1.58;1.40;;;18.90;28.00;;;;;;5116142;28;20227;-60
2020/12/24 05:46:47;;;;;;;2.20;2.10;;;18.90;28.00;;;;;;5116276;28;20252;-61
2020/12/24 05:49:17;;;;;;;1.70;1.50;;;18.90;28.00;;;;;;5115954;28;20165;-61
2020/12/24 05:51:57;;;;;;;1.73;1.27;;;18.90;28.00;;;;;;5115870;28;20294;-60
2020/12/24 05:54:23;;;;;;;1.88;1.70;;;18.90;28.00;;;;;;5116221;28;20171;-61
2020/12/24 05:56:49;;;;;;;1.75;1.65;;;18.90;28.00;;;;;;5115932;28;20194;-60
2020/12/24 05:59:17;;;;;;;1.65;1.55;;;18.80;28.00;;;;;;5115876;28;20228;-59
2020/12/24 06:01:57;;;;;;;1.67;1.58;;;18.90;28.00;;;;;;5097688;28;20177;-60
2020/12/24 06:04:37;;;;;;;1.80;1.60;;;18.80;28.00;;;;;;5131739;27;20179;-60
2020/12/24 06:07:07;;;;;;;1.90;1.10;;;18.80;28.00;;;;;;5115373;28;20160;-60
2020/12/24 06:09:41;;;;;;;1.88;1.40;;;18.80;28.00;;;;;;5115794;28;20233;-59
2020/12/24 06:12:19;;;;;;;1.55;1.40;;;18.80;28.60;;;;;;5115910;28;20153;-60
2020/12/24 06:14:48;;;;;;;2.55;1.70;;;18.80;28.00;;;;;;5097457;28;20173;-60
2020/12/24 06:17:15;;;;;;;2.03;1.83;;;18.80;28.10;;;;;;5115485;28;20174;-59
2020/12/24 06:19:41;;;;;;;1.30;1.15;;;18.80;28.00;;;;;;5115582;28;20153;-60
2020/12/24 06:22:08;;;;;;;2.67;2.47;;;18.80;28.10;;;;;;5114860;28;20161;-60
2020/12/24 06:24:44;;;;;;;2.10;1.90;;;18.80;28.10;;;;;;5115378;28;20659;-60
2020/12/24 06:27:30;;;;;;;1.50;1.40;;;18.80;28.10;;;;;;5115369;28;20240;-60
2020/12/24 06:30:06;;;;;;;1.55;1.45;;;18.80;28.10;;;;;;5115291;28;20229;-60
2020/12/24 06:32:47;;;;;;;1.70;1.60;;;18.80;28.10;;;;;;5115230;28;20160;-60
2020/12/24 06:35:32;;;;;;;1.48;1.38;;;18.80;28.10;;;;;;5115110;28;20157;-60
2020/12/24 06:37:57;;;;;;;1.60;1.50;;;18.80;28.10;;;;;;5114718;28;20149;-59
2020/12/24 06:40:32;;;;;;;2.20;1.20;;;18.80;28.10;;;;;;5115111;28;20164;-60
2020/12/24 06:42:58;;;;;;;1.38;1.27;;;18.80;28.10;;;;;;5115146;28;20152;-60
2020/12/24 06:45:26;;;;;;;1.67;1.50;;;18.80;28.10;;;;;;5114447;28;20234;-60
2020/12/24 06:48:15;;;;;;;1.88;1.50;;;18.80;28.10;;;;;;5114849;28;20161;-60
2020/12/24 06:50:42;;;;;;;1.20;1.10;;;18.80;28.10;;;;;;5115246;28;20185;-60
2020/12/24 06:53:24;;;;;;;2.00;1.55;;;18.80;28.20;;;;;;5114239;28;20216;-60
2020/12/24 06:56:21;;;;;;;2.10;1.40;;;18.80;28.20;;;;;;5114933;28;20202;-60
2020/12/24 06:58:53;;;;;;;1.90;1.50;;;18.80;28.20;;;;;;5114858;28;20210;-60
2020/12/24 07:01:31;;;;;;;2.13;1.90;;;18.80;28.20;;;;;;5115026;28;20150;-60
2020/12/24 07:03:59;;;;;;;2.17;1.65;;;18.80;28.20;;;;;;5114657;28;20180;-59
2020/12/24 07:06:40;;;;;;;2.42;1.40;;;18.80;28.20;;;;;;5114540;28;20180;-60
2020/12/24 07:09:11;;;;;;;1.63;1.52;;;18.80;28.20;;;;;;5114012;28;20202;-60
2020/12/24 07:11:50;;;;;;;1.55;1.45;;;18.80;28.20;;;;;;5114654;28;20184;-60
2020/12/24 07:14:54;;;;;;;1.60;1.48;;;18.80;28.20;;;;;;5114789;28;20150;-60
2020/12/24 07:17:20;;;;;;;1.50;1.30;;;18.80;28.20;;;;;;5031891;28;20741;-60
2020/12/24 07:19:49;;;;;;;1.83;1.25;;;18.80;28.20;;;;;;5031967;28;20558;-62
2020/12/24 07:22:16;;;;;;;1.92;1.48;;;18.70;28.10;;;;;;5071620;28;20615;-59
2020/12/24 07:25:02;;;;;;;1.55;1.40;;;18.80;28.30;;;;;;5096330;28;20206;-59
2020/12/24 07:27:28;;;;;;;1.50;1.40;;;18.80;28.20;;;;;;5113713;28;20184;-59
2020/12/24 07:29:54;;;;;;;2.60;1.83;;;18.70;28.10;;;;;;5114386;28;20207;-59
2020/12/24 07:32:20;;;;;;;2.20;1.30;;;18.80;28.20;;;;;;5114279;28;20629;-59
2020/12/24 07:34:46;;;;;;;1.60;1.50;;;18.70;28.10;;;;;;5096222;28;20406;-60
2020/12/24 07:37:12;;;;;;;2.03;1.40;;;18.80;28.20;;;;;;5113614;28;20558;-60
2020/12/24 07:39:37;;;;;;;1.33;1.23;;;18.80;28.20;;;;;;5114361;28;20381;-60
2020/12/24 07:42:03;;;;;;;1.70;1.60;;;18.80;28.20;;;;;;5114038;28;20189;-60
2020/12/24 07:44:29;;;;;;;1.67;1.40;;;18.80;28.20;;;;;;5114145;28;20157;-60
2020/12/24 07:47:02;;;;;;;1.23;1.13;;;18.80;28.10;;;;;;5114076;28;20508;-60
2020/12/24 07:49:28;;;;;;;1.90;1.75;;;18.80;28.10;;;;;;5114007;28;20184;-61
2020/12/24 07:51:58;;;;;;;1.63;1.30;;;18.80;28.10;;;;;;5113538;28;20316;-60
2020/12/24 07:54:25;;;;;;;1.60;1.50;;;18.80;28.00;;;;;;5114232;28;20202;-60
2020/12/24 07:56:51;;;;;;;2.38;1.52;;;18.80;28.00;;;;;;5114128;28;20174;-61
2020/12/24 07:59:17;;;;;;;1.60;1.40;;;18.90;28.00;;;;;;5118293;28;20489;-60
2020/12/24 08:01:43;;;;;;;1.58;1.45;;;18.90;28.00;;;;;;5118147;28;20164;-61
2020/12/24 08:04:09;;;;;;;1.13;1.00;;;18.90;27.90;;;;;;5118173;28;20161;-61
2020/12/24 08:06:38;;;;;;;1.90;1.80;;;18.90;27.90;;;;;;5118103;28;20403;-61
2020/12/24 08:09:17;;;;;;;1.65;1.55;;;18.90;27.90;;;;;;5117625;28;20157;-61
2020/12/24 08:12:04;;;;;;;1.50;1.40;;;18.90;27.90;;;;;;5117998;28;20200;-61
2020/12/24 08:14:30;;;;;;;1.25;1.15;;;18.90;27.80;;;;;;5118369;28;20193;-61
2020/12/24 08:17:30;;;;;;;3.08;1.13;;;18.90;27.80;;;;;;5117882;28;20158;-60
2020/12/24 08:20:07;;;;;;;1.30;1.20;;;18.90;27.80;;;;;;5117825;28;20183;-60
2020/12/24 08:22:59;;;;;;;1.50;1.40;;;18.90;27.70;;;;;;5117224;28;20165;-61
2020/12/24 08:25:25;;;;;;;1.40;1.30;;;18.90;27.70;;;;;;5117770;28;20157;-61
2020/12/24 08:27:51;;;;;;;1.67;1.10;;;18.90;27.70;;;;;;5099364;28;20214;-60
2020/12/24 08:30:17;;;;;;;2.30;1.48;;;18.90;27.70;;;;;;5117501;28;20940;-60
2020/12/24 08:32:43;;;;;;;1.40;1.15;;;18.90;27.80;;;;;;5117597;28;20157;-60
2020/12/24 08:35:13;;;;;;;1.63;1.43;;;18.90;27.80;;;;;;5117553;28;20237;-60
2020/12/24 08:37:39;;;;;;;1.42;1.30;;;18.90;27.80;;;;;;5117022;28;20453;-60
2020/12/24 08:40:27;;;;;;;1.55;1.30;;;18.90;27.80;;;;;;5117414;28;20157;-59
2020/12/24 08:42:59;;;;;;;1.42;1.33;;;18.90;27.80;;;;;;5117462;28;20200;-59
2020/12/24 08:45:24;;;;;;;1.45;1.35;;;18.90;27.80;;;;;;5117159;28;20161;-61
2020/12/24 08:47:50;;;;;;;1.43;1.33;;;18.90;27.90;;;;;;5117287;28;20634;-60
2020/12/24 08:50:31;;;;;;;1.57;1.37;;;18.90;27.90;;;;;;5117355;28;20981;-59
2020/12/24 08:52:57;;;;;;;1.45;1.35;;;18.80;27.80;;;;;;5116743;28;20209;-60
2020/12/24 08:55:27;;;;;;;2.20;1.60;;;18.90;27.90;;;;;;5117321;28;20218;-60
2020/12/24 08:57:54;;;;;;;1.80;1.38;;;18.90;27.80;;;;;;5132680;27;20259;-60
2020/12/24 09:00:23;;;;;;;1.45;1.35;;;18.90;27.80;;;;;;5117131;28;20177;-60
2020/12/24 09:02:49;;;;;;;1.73;1.60;;;18.90;27.70;;;;;;5098740;28;20488;-60
2020/12/24 09:05:21;;;;;;;1.43;1.20;;;18.90;27.60;;;;;;5098567;28;20615;-60
2020/12/24 09:07:47;;;;;;;1.40;1.27;;;19.00;27.60;;;;;;5115819;28;20161;-61
2020/12/24 09:10:14;;;;;;;1.50;1.40;;;19.00;27.50;;;;;;5116753;28;20213;-60
2020/12/24 09:12:42;;;;;;;1.75;1.65;;;19.00;27.40;;;;;;5116839;28;20646;-60
2020/12/24 09:15:12;;;;;;;1.80;1.30;;;19.00;27.40;;;;;;5116970;28;20149;-60
2020/12/24 09:17:47;;;;;;;1.95;1.35;;;18.90;27.30;;;;;;5116537;28;20153;-60
2020/12/24 09:20:14;;;;;;;1.50;1.15;;;19.00;27.40;;;;;;5116795;28;20217;-60
2020/12/24 09:23:01;;;;;;;2.38;1.55;;;19.00;27.40;;;;;;5098342;28;20149;-61
2020/12/24 09:25:36;;;;;;;1.58;1.48;;;19.00;27.40;;;;;;5116578;28;20153;-61
2020/12/24 09:28:04;;;;;;;1.50;1.33;;;19.00;27.40;;;;;;5116326;28;20164;-60
2020/12/24 09:30:31;;;;;;;1.33;1.23;;;19.00;27.40;;;;;;5116618;28;20650;-60
2020/12/24 09:33:01;;;;;;;2.38;1.40;;;19.00;27.40;;;;;;5116510;28;20192;-60
2020/12/24 09:35:29;;;;;;;1.30;1.20;;;19.00;27.40;;;;;;5116541;28;20145;-61
2020/12/24 09:37:56;;;;;;;2.63;1.48;;;19.00;27.40;;;;;;5115954;28;20162;-60
2020/12/24 09:40:22;;;;;;;1.60;1.50;;;19.00;27.40;;;;;;5116514;28;20162;-61
2020/12/24 09:42:48;;;;;;;1.85;1.52;;;19.00;27.40;;;;;;5116167;28;20228;-60
2020/12/24 09:45:14;;;;;;;1.17;1.08;;;19.00;27.40;;;;;;5116238;28;20167;-60
2020/12/24 09:47:43;;;;;;;1.80;1.40;;;19.00;27.40;;;;;;5116053;28;20157;-61
2020/12/24 09:50:09;;;;;;;1.00;1.00;;;19.00;27.40;;;;;;5116253;28;20461;-60
2020/12/24 09:52:40;;;;;;;1.53;1.43;;;19.00;27.40;;;;;;5078874;28;20677;-61
2020/12/24 09:55:06;;;;;;;1.40;1.30;;;19.00;27.40;;;;;;5075400;28;20154;-59
2020/12/24 09:57:33;;;;;;;1.30;1.20;;;19.00;27.40;;;;;;5075122;28;20198;-59
2020/12/24 09:59:59;;;;;;;1.30;1.20;;;19.00;27.40;;;;;;5075218;28;20178;-59
2020/12/24 10:02:26;;;;;;;2.15;1.45;;;19.10;27.40;;;;;;5074782;28;20196;-59
2020/12/24 10:04:53;;;;;;;1.60;1.38;;;19.10;27.40;;;;;;5075317;28;20185;-59
2020/12/24 10:07:22;;;;;;;2.10;1.35;;;19.10;27.50;;;;;;5074359;28;20158;-60
2020/12/24 10:09:49;;;;;;;1.40;1.05;;;19.20;27.50;;;;;;5075219;28;20204;-60
2020/12/24 10:12:15;;;;;;;1.50;1.35;;;19.20;27.40;;;;;;5074678;28;20155;-59
2020/12/24 10:14:41;;;;;;;2.25;1.40;;;19.20;27.30;;;;;;5074789;28;20205;-59
2020/12/24 10:17:06;;;;;;;1.93;1.10;;;19.20;27.20;;;;;;5074626;28;20626;-59
2020/12/24 10:19:32;;;;;;;1.90;1.27;;;19.20;27.10;;;;;;5106683;28;20746;-60
2020/12/24 10:21:58;;;;;;;1.63;1.40;;;19.20;27.00;;;;;;5089862;28;20202;-60
2020/12/24 10:24:24;;;;;;;1.80;1.10;;;19.30;27.10;;;;;;5074797;28;20261;-60
2020/12/24 10:26:54;;;;;;;1.55;1.05;;;19.30;27.00;;;;;;5074619;28;20467;-60
2020/12/24 10:29:19;;;;;;;1.30;1.10;;;19.30;26.90;;;;;;5074660;28;20146;-61
2020/12/24 10:31:45;;;;;;;2.00;1.63;;;19.30;26.90;;;;;;5107285;28;20181;-60
2020/12/24 10:34:11;;;;;;;1.20;1.03;;;19.40;26.90;;;;;;5074564;28;20155;-60
2020/12/24 10:36:36;;;;;;;2.00;1.50;;;19.40;26.80;;;;;;5074659;28;20147;-60
2020/12/24 10:39:06;;;;;;;1.40;1.30;;;19.40;26.70;;;;;;5073985;28;20261;-60
2020/12/24 10:41:32;;;;;;;1.50;1.20;;;19.40;26.70;;;;;;5074477;28;20161;-60
2020/12/24 10:43:57;;;;;;;1.70;1.20;;;19.40;26.70;;;;;;5106715;28;20178;-59
2020/12/24 10:46:23;;;;;;;1.30;0.90;;;19.40;26.70;;;;;;5074375;28;20201;-60
2020/12/24 10:48:49;;;;;;;1.70;1.17;;;19.40;26.60;;;;;;5074383;28;20667;-60
2020/12/24 10:51:15;;;;;;;1.40;1.20;;;19.40;26.60;;;;;;5106576;28;20265;-60
2020/12/24 10:53:41;;;;;;;1.67;1.00;;;19.40;26.70;;;;;;5073675;28;20159;-60
2020/12/24 10:56:12;;;;;;;2.13;1.93;;;19.40;26.60;;;;;;5074229;28;20162;-61
2020/12/24 10:58:38;;;;;;;2.30;1.60;;;19.40;26.60;;;;;;5074174;28;20154;-60
2020/12/24 11:01:08;;;;;;;1.10;1.00;;;19.50;26.60;;;;;;5074434;28;20167;-60
2020/12/24 11:03:33;;;;;;;1.42;1.33;;;19.50;26.60;;;;;;5073847;28;20170;-60
2020/12/24 11:05:59;;;;;;;1.30;1.10;;;19.50;26.50;;;;;;5074153;28;20155;-59
2020/12/24 11:08:25;;;;;;;2.20;1.20;;;19.50;26.40;;;;;;5073544;28;20200;-59
2020/12/24 11:10:50;;;;;;;1.57;1.30;;;19.60;26.40;;;;;;5073941;28;20661;-58
2020/12/24 11:13:17;;;;;;;1.77;1.60;;;;;;;;;;5073718;28;20401;-59
2020/12/24 11:15:42;;;;;;;2.17;1.30;;;19.60;25.80;;;;;;5106877;28;20159;-59
2020/12/24 11:18:08;;;;;;;1.50;1.33;;;19.60;26.30;;;;;;5074078;28;20165;-60
2020/12/24 11:20:33;;;;;;;1.00;0.87;;;19.60;26.30;;;;;;5073962;28;20491;-60
2020/12/24 11:22:59;;;;;;;1.87;1.27;;;19.60;26.30;;;;;;5073557;28;20185;-59
2020/12/24 11:25:24;;;;;;;1.30;1.20;;;19.60;26.30;;;;;;5073906;28;20672;-59
2020/12/24 11:27:50;;;;;;;1.70;1.60;;;19.50;26.30;;;;;;5073609;28;20204;-60
2020/12/24 11:30:16;;;;;;;1.50;1.00;;;19.50;26.50;;;;;;5074189;28;20718;-60
2020/12/24 11:32:41;;;;;;;2.33;1.70;;;19.50;26.50;;;;;;5106021;28;20182;-60
2020/12/24 11:35:07;;;;;;;2.13;1.90;;;19.40;26.50;;;;;;5073874;28;20259;-60
2020/12/24 11:37:33;;;;;;;1.97;1.40;;;19.40;26.50;;;;;;5072940;28;20605;-60
2020/12/24 11:39:58;;;;;;;1.63;1.27;;;18.60;26.10;;;;;;5073721;28;20261;-60
2020/12/24 11:42:24;;;;;;;1.43;1.33;;;19.40;26.60;;;;;;5073481;28;20815;-60
2020/12/24 11:44:50;;;;;;;2.10;1.27;;;19.40;26.60;;;;;;5073749;28;20162;-60
2020/12/24 11:47:15;;;;;;;1.37;1.23;;;19.40;26.70;;;;;;5073438;28;20159;-60
2020/12/24 11:49:41;;;;;;;1.40;1.30;;;19.40;26.70;;;;;;5072564;28;20217;-59
2020/12/24 11:52:06;;;;;;;1.67;1.50;;;19.30;26.60;;;;;;5054969;28;20222;-60
2020/12/24 11:54:32;;;;;;;2.83;1.40;;;19.30;26.70;;;;;;5073508;28;20151;-60
2020/12/24 11:56:59;;;;;;;1.63;1.30;;;19.30;26.70;;;;;;5073317;28;20166;-60
2020/12/24 11:59:25;;;;;;;1.63;1.52;;;19.30;26.80;;;;;;5072388;28;20193;-60
2020/12/24 12:01:51;;;;;;;1.30;1.20;;;19.30;26.80;;;;;;5073574;28;20190;-60
2020/12/24 12:04:17;;;;;;;1.50;1.20;;;19.30;26.80;;;;;;5073499;28;20237;-60
2020/12/24 12:06:42;;;;;;;1.57;1.20;;;19.30;26.80;;;;;;5072300;28;20158;-59
2020/12/24 12:09:08;;;;;;;1.00;0.90;;;19.20;26.80;;;;;;5073176;28;21031;-60
2020/12/24 12:11:34;;;;;;;1.00;0.80;;;19.30;26.80;;;;;;5071618;28;20197;-61
2020/12/24 12:14:00;;;;;;;1.73;1.20;;;19.30;26.80;;;;;;5073149;28;20500;-60
2020/12/24 12:16:27;;;;;;;1.73;1.13;;;19.20;26.70;;;;;;5073235;28;20151;-60
2020/12/24 12:18:53;;;;;;;1.27;1.10;;;19.30;26.80;;;;;;5072218;28;20198;-60
2020/12/24 12:21:20;;;;;;;1.25;1.15;;;19.30;26.80;;;;;;5073506;28;20146;-60
2020/12/24 12:23:46;;;;;;;1.30;1.10;;;19.30;26.80;;;;;;5072499;28;20159;-60
2020/12/24 12:26:12;;;;;;;1.30;1.07;;;19.30;26.70;;;;;;5073189;28;20212;-60
2020/12/24 12:28:40;;;;;;;1.42;1.10;;;19.30;26.70;;;;;;5073164;28;20455;-60
2020/12/24 12:31:06;;;;;;;1.35;1.25;;;19.30;26.70;;;;;;5073132;28;20243;-60
2020/12/24 12:33:32;;;;;;;1.33;1.10;;;19.30;26.60;;;;;;5073137;28;20621;-61
2020/12/24 12:35:58;;;;;;;1.50;1.40;;;19.30;26.60;;;;;;5073100;28;20147;-60
2020/12/24 12:38:23;;;;;;;1.40;1.30;;;19.30;26.60;;;;;;5072407;28;20151;-60
2020/12/24 12:40:49;;;;;;;1.47;1.37;;;19.30;26.60;;;;;;5073082;28;20185;-60
2020/12/24 12:43:14;;;;;;;1.57;1.27;;;19.40;26.70;;;;;;5073822;28;20154;-60
2020/12/24 12:45:40;;;;;;;1.90;1.37;;;19.40;26.60;;;;;;5109504;28;20617;-60
2020/12/24 12:48:06;;;;;;;2.13;1.03;;;19.40;26.60;;;;;;5076727;28;20163;-60
2020/12/24 12:50:32;;;;;;;1.48;1.15;;;19.40;26.60;;;;;;5076497;28;20221;-60
2020/12/24 12:52:58;;;;;;;2.23;0.90;;;19.30;26.60;;;;;;5112635;28;20597;-59